< < Back
Terminal Aerodrome Forecast


Current Version              Previous Versions:   1  2  3  4  5  6  7  8  9  

Terminal Aerodrome Forecast

362
FTUS44 KMOB 280525
TAFMOB
TAF
KMOB 280525Z 2806/2906 01006KT P6SM SKC
     FM281500 04006KT P6SM SCT250=



Latest METAR

476
SAUS80 KWBC 280900
MTRMOB
METAR KMOB 280856Z AUTO 35009KT 10SM CLR 06/02 A3017 RMK AO2 SLP213
T00610022 52003


USA.gov is the U.S. government's official web portal to all federal, state and local government web resources and services.